KBJCKSBS

Guest
Details From KBJC - Rocky Mountain Metropolitan Airport
To KSBS - STEAMBOAT SPRINGS BOB ADAMS FLD
Flight Number -
Tags generated
Created
Modified
Stats Distance 88 nm / 163 km
Max Altitude 300 ft / 91 m
Waypoints 3
Social Downloads 1
Likes 0
Share VATSIM

Download

Looking for another format? Having issues loading an existing format? Contact us
Advertisement - Login to hide

Notes

Basic altitude profile: - Ascent Rate: 2000ft/min - Ascent Speed: 200kts - Cruise Altitude: 18000ft - Cruise Speed: 220kts - Descent Rate: 1500ft/min - Descent Speed: 180kts Options: - Use NATs: yes - Use PACOTS: yes - Use low airways: yes - Use high airways: yes

Route

KBJC BJC KSBS

ID Type Via Altitude Latitude Longitude Leg Dist Tot Dist Heading (true) Name
O KBJC APT - 0 ft / 0 m 39.90902˚ -105.11697˚ - 0 nm - Rocky Mountain Metropolitan Airport
BJC VOR - 300 ft / 91 m 39.91303˚ -105.13903˚ 1 nm 1 nm 283° / 283° JEFFCO VOR-DME
O KSBS APT - 0 ft / 0 m 40.51626˚ -106.86630˚ 87 nm 88 nm 295° / 294° STEAMBOAT SPRINGS BOB ADAMS FLD

Altitude Profile

Advertisement - Login to hide

KBJC

Details ICAO KBJC (BJC)
Name Rocky Mountain Metropolitan Airport
Region United States
Timezone America/Denver (UTC-7.0)
Stats Elevation 5,670 ft / 1,728 m (AMSL)
Location 39.909018° -105.116968°
Runways 3
Magnetic Variation 8.299° E

METAR

KBJC 121547Z VRB03KT 70SM SKC 04/M10 A3034

Decode

TAF

KBJC 121121Z 1212/1312 23005KT P6SM SKC FM121700 29005KT P6SM SKC FM121900 07005KT P6SM SKC FM130100 24007KT P6SM FEW220

Decode

Departure Runways

ID Width Length Bearing (true) Bearing (mag) Surface Threshold Offset Overrun Length
02 75 ft / 23 m 3,601 ft / 1,098 m 34.18° 25.88° Asphalt 0 ft / 0 m 0 ft / 0 m
11L 100 ft / 30 m 8,990 ft / 2,740 m 124.39° 116.09° Asphalt 0 ft / 0 m 0 ft / 0 m
11R 75 ft / 23 m 6,995 ft / 2,132 m 124.39° 116.09° Asphalt 0 ft / 0 m 0 ft / 0 m
20 75 ft / 23 m 3,601 ft / 1,098 m 214.18° 205.88° Asphalt 0 ft / 0 m 0 ft / 0 m
29L 75 ft / 23 m 6,995 ft / 2,132 m 304.40° 296.10° Asphalt 0 ft / 0 m 0 ft / 0 m
29R 100 ft / 30 m 8,990 ft / 2,740 m 304.41° 296.11° Asphalt 0 ft / 0 m 0 ft / 0 m

KSBS

Details ICAO KSBS (SBS)
Name STEAMBOAT SPRINGS BOB ADAMS FLD
Region United States
Timezone America/Denver (UTC-7.0)
Stats Elevation 6,878 ft / 2,096 m (AMSL)
Location 40.516258° -106.866302°
Runways 1
Magnetic Variation 9.236° E

METAR

KSBS 121554Z AUTO 00000KT 10SM CLR M08/M12 A3054 RMK AO1 T10831117

Decode

TAF

Not found

Destination Runways

ID Width Length Bearing (true) Bearing (mag) Surface Threshold Offset Overrun Length
14 100 ft / 30 m 4,454 ft / 1,358 m 152.97° 143.73° Asphalt 0 ft / 0 m 0 ft / 0 m
32 100 ft / 30 m 4,454 ft / 1,358 m 332.97° 323.73° Asphalt 600 ft / 183 m 0 ft / 0 m